Accueil
METAR-TAF:

METAR-TAF

Aéroports :

Toussus-le-Noble, France

Aéroport de Toussus-le-Noble

latitude: 48-46N, longitude: 002-06E, altitude: 164 m

Observation

Le bulletin a été fait il y a 30 minutes, à 16:00 UTC
Vent 12 kt de nord/nord-est
Température 4°C
Humidité 52%
Pression 1016 hPa
Visibilité 10 km ou plus
pas de nuages en-dessous de 1500 mètres et pas de cumulonimbus.

METAR: LFPN 221600Z AUTO 03012KT CAVOK 04/M05 Q1016 NOSIG

Heure: 17:30 (16:30 UTC)

Prévision

Le bulletin a été fait il y a 2 heures et 30 minutes, à 14:00 UTC
Prévision valable du 22 à 15 UTC au 22 à 24 UTC
Vent 10 kt de nord-est
Visibilité 10 km ou plus
pas de nuages en-dessous de 1500 mètres et pas de cumulonimbus.
Temporairement
du 22 à 15 UTC au 22 à 18 UTC
Vent 10 kt de nord-est avec des rafales jusqu'à 20 kt

TAF: LFPN 221400Z 2215/2224 04010KT CAVOK TEMPO 2215/2218 04010G20KT

Observations et prévisions météorologiques de plus de 4000 aéroports (messages METAR et TAF).

Les stations disponibles sont représentées par des disques jaunes et rouges sur la carte.

Passer la souris dessus pour voir le nom de la station.

Cliquer dessus pour voir les observations et prévisions météorologiques.

Pour changer de carte: cliquez sur les boutons verts avec une croix noire pour zoomer, sur le bouton vert avec un tiret pour effectuer un zoom arrière, ou sur les flèches vertes pour les cartes adjacentes.


METAR-TAF: